Time;durP1;ratioP1;P1;durP2;ratioP2;P2;SDS_P1;SDS_P2;PMS_P1;PMS_P2;Temp;Humidity;BMP_temperature;BMP_pressure;BME280_temperature;BME280_humidity;BME280_pressure;Samples;Min_cycle;Max_cycle;Signal;HPM_P1;HPM_P2
2021/01/04 00:01:44;;;;;;;20.03;13.50;;;2.90;99.90;;;;;;5108525;28;20187;-81
2021/01/04 00:04:35;;;;;;;20.90;18.80;;;2.80;99.90;;;;;;5111283;28;20224;-82
2021/01/04 00:07:16;;;;;;;21.63;19.53;;;2.80;99.90;;;;;;5102699;28;20656;-81
2021/01/04 00:10:27;;;;;;;21.17;18.97;;;2.80;99.90;;;;;;5108069;28;20670;-83
2021/01/04 00:13:01;;;;;;;20.67;18.67;;;2.80;99.90;;;;;;5113259;28;20193;-81
2021/01/04 00:15:36;;;;;;;20.37;18.33;;;2.80;99.90;;;;;;5116350;27;20165;-81
2021/01/04 00:18:20;;;;;;;20.17;18.13;;;2.90;99.90;;;;;;5114920;28;20181;-82
2021/01/04 00:21:03;;;;;;;20.27;18.23;;;2.90;99.90;;;;;;5113660;28;20646;-82
2021/01/04 00:23:38;;;;;;;19.67;17.63;;;2.80;99.90;;;;;;5096410;28;20177;-82
2021/01/04 00:26:15;;;;;;;18.50;16.80;;;2.90;99.90;;;;;;5096140;28;20175;-82
2021/01/04 00:28:41;;;;;;;19.57;17.67;;;2.80;99.90;;;;;;5112804;28;20177;-82
2021/01/04 00:31:15;;;;;;;19.33;17.53;;;2.90;99.90;;;;;;5094684;28;20202;-82
2021/01/04 00:33:52;;;;;;;19.33;17.43;;;2.90;99.90;;;;;;5097423;28;20178;-82
2021/01/04 00:36:29;;;;;;;19.47;17.63;;;2.90;99.90;;;;;;5112477;28;20544;-81
2021/01/04 00:38:58;;;;;;;24.63;17.57;;;2.80;99.90;;;;;;5114684;28;20192;-81
2021/01/04 00:41:33;;;;;;;18.80;17.03;;;2.80;99.90;;;;;;5097199;28;20191;-81
2021/01/04 00:44:04;;;;;;;17.67;16.07;;;2.80;99.90;;;;;;5107891;28;20558;-81
2021/01/04 00:46:42;;;;;;;18.47;16.77;;;2.90;99.90;;;;;;5110878;28;20209;-81
2021/01/04 00:49:20;;;;;;;18.60;16.90;;;3.00;99.90;;;;;;5108594;28;20195;-81
2021/01/04 00:51:54;;;;;;;18.17;16.47;;;2.90;99.90;;;;;;5114266;28;20209;-81
2021/01/04 00:54:59;;;;;;;18.13;16.33;;;2.90;99.90;;;;;;5111268;28;20694;-81
2021/01/04 00:58:21;;;;;;;18.30;16.60;;;2.90;99.90;;;;;;5101346;28;20163;-81
2021/01/04 01:01:01;;;;;;;18.50;16.60;;;2.90;99.90;;;;;;4998470;28;20642;-81
2021/01/04 01:03:51;;;;;;;17.87;16.20;;;2.80;99.90;;;;;;5043035;28;20192;-81
2021/01/04 01:06:22;;;;;;;17.57;15.97;;;2.90;99.90;;;;;;5084585;28;20391;-81
2021/01/04 01:08:53;;;;;;;18.53;16.83;;;2.90;99.90;;;;;;5096965;28;20180;-81
2021/01/04 01:11:25;;;;;;;17.07;15.47;;;2.90;99.90;;;;;;5115016;28;20211;-81
2021/01/04 01:14:10;;;;;;;17.80;16.20;;;2.90;99.90;;;;;;5105818;28;20175;-82
2021/01/04 01:16:53;;;;;;;18.13;16.53;;;2.90;99.90;;;;;;5113690;28;20206;-82
2021/01/04 01:19:25;;;;;;;17.60;15.90;;;2.90;99.90;;;;;;5113163;28;20181;-82
2021/01/04 01:21:50;;;;;;;16.43;14.93;;;2.90;99.90;;;;;;5103092;28;20174;-82
2021/01/04 01:24:16;;;;;;;17.20;15.60;;;2.90;99.90;;;;;;5072560;28;20529;-81
2021/01/04 01:27:23;;;;;;;16.87;15.33;;;2.90;99.90;;;;;;5078950;28;20638;-82
2021/01/04 01:30:26;;;;;;;17.90;16.30;;;2.90;99.90;;;;;;5092205;28;20215;-82
2021/01/04 01:32:55;;;;;;;17.43;15.83;;;2.90;99.90;;;;;;5110771;28;20177;-81
2021/01/04 01:36:03;;;;;;;17.87;16.17;;;2.90;99.90;;;;;;5100537;28;20178;-81
2021/01/04 01:38:32;;;;;;;17.73;16.13;;;2.90;99.90;;;;;;5103818;28;20181;-81
2021/01/04 01:41:13;;;;;;;18.87;17.17;;;2.90;99.90;;;;;;5108974;28;20634;-82
2021/01/04 01:44:19;;;;;;;19.30;17.33;;;2.80;99.90;;;;;;5110246;28;20162;-81
2021/01/04 01:47:10;;;;;;;19.83;18.03;;;2.80;99.90;;;;;;5093295;28;20200;-82
2021/01/04 01:49:43;;;;;;;19.97;18.07;;;2.70;99.90;;;;;;5094716;28;20179;-81
2021/01/04 01:52:28;;;;;;;20.23;18.43;;;2.60;99.90;;;;;;5100891;28;20197;-81
2021/01/04 01:55:18;;;;;;;22.13;20.03;;;2.60;99.90;;;;;;5102688;28;20178;-81
2021/01/04 01:58:28;;;;;;;21.87;19.90;;;2.50;99.90;;;;;;5105825;28;20272;-81
2021/01/04 02:01:05;;;;;;;22.90;20.77;;;2.50;99.90;;;;;;5013986;28;20168;-81
2021/01/04 02:03:50;;;;;;;24.07;21.80;;;2.40;99.90;;;;;;5014498;28;20189;-81
2021/01/04 02:06:40;;;;;;;24.07;21.67;;;2.40;99.90;;;;;;5067328;28;20640;-81
2021/01/04 02:09:13;;;;;;;24.87;22.60;;;2.40;99.90;;;;;;5110720;28;20678;-81
2021/01/04 02:11:50;;;;;;;25.50;23.00;;;2.40;99.90;;;;;;5107679;28;20206;-81
2021/01/04 02:14:37;;;;;;;24.23;21.97;;;2.40;99.90;;;;;;5114079;28;20199;-80
2021/01/04 02:17:31;;;;;;;24.80;22.50;;;2.40;99.90;;;;;;5097543;28;20253;-81
2021/01/04 02:20:09;;;;;;;25.10;22.60;;;2.40;99.90;;;;;;5097156;28;20543;-81
2021/01/04 02:22:59;;;;;;;25.93;23.43;;;2.40;99.90;;;;;;5110553;28;20208;-80
2021/01/04 02:25:31;;;;;;;25.97;23.50;;;2.40;99.90;;;;;;5091911;28;20181;-81
2021/01/04 02:28:03;;;;;;;27.43;24.80;;;2.40;99.90;;;;;;5111458;28;20553;-81
2021/01/04 02:30:29;;;;;;;26.77;24.07;;;2.30;99.90;;;;;;5105447;28;20221;-81
2021/01/04 02:32:55;;;;;;;27.93;25.10;;;2.30;99.90;;;;;;5104717;28;20635;-81
2021/01/04 02:35:21;;;;;;;28.40;25.60;;;2.30;99.90;;;;;;5088170;28;20179;-81
2021/01/04 02:37:47;;;;;;;28.73;25.83;;;2.30;99.90;;;;;;5092194;28;20182;-81
2021/01/04 02:40:15;;;;;;;28.70;25.70;;;2.30;99.90;;;;;;5094473;28;20186;-81
2021/01/04 02:42:47;;;;;;;27.17;24.57;;;2.20;99.90;;;;;;5110405;28;20574;-81
2021/01/04 02:45:20;;;;;;;30.33;27.47;;;2.20;99.90;;;;;;5113864;28;20150;-81
2021/01/04 02:48:26;;;;;;;28.97;26.07;;;2.20;99.90;;;;;;5099945;28;20253;-81
2021/01/04 02:51:14;;;;;;;27.70;24.87;;;2.30;99.90;;;;;;5100589;28;20235;-81
2021/01/04 02:54:00;;;;;;;28.60;25.80;;;2.20;99.90;;;;;;5111906;28;20194;-81
2021/01/04 02:56:43;;;;;;;29.00;26.30;;;2.20;99.90;;;;;;5112235;28;20640;-81
2021/01/04 02:59:23;;;;;;;29.30;26.40;;;2.20;99.90;;;;;;5107815;28;20626;-82
2021/01/04 03:02:17;;;;;;;29.07;26.27;;;2.20;99.90;;;;;;5109867;28;20296;-81
2021/01/04 03:04:46;;;;;;;28.57;25.77;;;2.20;99.90;;;;;;5097637;28;20170;-81
2021/01/04 03:07:23;;;;;;;28.70;25.80;;;2.20;99.90;;;;;;5108776;28;20175;-81
2021/01/04 03:09:51;;;;;;;29.77;26.77;;;2.20;99.90;;;;;;5093000;28;20231;-81
2021/01/04 03:12:30;;;;;;;28.87;26.07;;;2.20;99.90;;;;;;5103628;28;20213;-81
2021/01/04 03:15:18;;;;;;;29.43;26.40;;;2.10;99.90;;;;;;5111844;28;20177;-81
2021/01/04 03:18:01;;;;;;;28.10;25.43;;;2.10;99.90;;;;;;5111836;28;20217;-81
2021/01/04 03:20:27;;;;;;;29.43;26.67;;;2.10;99.90;;;;;;5101461;28;20190;-81
2021/01/04 03:22:54;;;;;;;28.37;25.67;;;2.10;99.90;;;;;;5103578;28;20189;-81
2021/01/04 03:25:30;;;;;;;29.30;26.50;;;2.20;99.90;;;;;;5105024;28;20174;-81
2021/01/04 03:27:56;;;;;;;30.23;27.33;;;2.20;99.90;;;;;;5113014;28;20252;-81
2021/01/04 03:30:22;;;;;;;30.47;27.57;;;2.20;99.90;;;;;;5104977;28;20201;-81
2021/01/04 03:32:47;;;;;;;29.40;26.50;;;2.20;99.90;;;;;;5078284;28;20635;-81
2021/01/04 03:35:13;;;;;;;29.60;26.63;;;2.20;99.90;;;;;;5097168;28;20188;-81
2021/01/04 03:37:39;;;;;;;29.17;26.27;;;2.20;99.90;;;;;;5117207;27;20176;-81
2021/01/04 03:40:07;;;;;;;30.63;27.73;;;2.20;99.90;;;;;;5109816;28;20555;-81
2021/01/04 03:42:32;;;;;;;30.20;27.03;;;2.20;99.90;;;;;;5098317;28;20174;-81
2021/01/04 03:44:58;;;;;;;30.83;27.63;;;2.20;99.90;;;;;;5114774;28;20187;-81
2021/01/04 03:47:24;;;;;;;29.03;26.30;;;2.20;99.90;;;;;;5102203;28;20190;-81
2021/01/04 03:49:50;;;;;;;30.13;27.20;;;2.30;99.90;;;;;;5106937;28;20238;-81
2021/01/04 03:52:16;;;;;;;30.13;27.23;;;2.30;99.90;;;;;;5096146;28;20198;-81
2021/01/04 03:54:42;;;;;;;30.13;27.13;;;2.30;99.90;;;;;;5104144;28;20231;-81
2021/01/04 03:57:09;;;;;;;30.97;28.03;;;2.30;99.90;;;;;;5107027;28;20223;-81
2021/01/04 03:59:34;;;;;;;30.50;27.60;;;2.30;99.90;;;;;;5116616;28;20535;-81
2021/01/04 04:02:00;;;;;;;29.17;26.37;;;2.30;99.90;;;;;;5098222;28;20177;-81
2021/01/04 04:04:25;;;;;;;28.97;26.07;;;2.30;99.90;;;;;;5105294;28;20658;-81
2021/01/04 04:06:52;;;;;;;28.80;26.10;;;2.30;99.90;;;;;;5114913;28;20277;-81
2021/01/04 04:09:19;;;;;;;29.73;26.83;;;2.30;99.90;;;;;;5114716;28;20173;-81
2021/01/04 04:11:45;;;;;;;30.40;27.40;;;2.30;99.90;;;;;;5095001;28;20214;-81
2021/01/04 04:14:12;;;;;;;30.17;27.27;;;2.30;99.90;;;;;;5109316;28;20286;-81
2021/01/04 04:16:38;;;;;;;29.70;26.80;;;2.30;99.90;;;;;;5111633;28;20193;-82
2021/01/04 04:19:05;;;;;;;29.17;26.40;;;2.30;99.90;;;;;;5104888;28;20236;-81
2021/01/04 04:21:31;;;;;;;29.33;26.57;;;2.30;99.90;;;;;;5105779;28;20169;-81
2021/01/04 04:23:57;;;;;;;28.27;25.53;;;2.30;99.90;;;;;;5114874;28;20265;-81
2021/01/04 04:26:27;;;;;;;29.40;26.40;;;2.30;99.90;;;;;;5113457;28;20277;-81
2021/01/04 04:28:53;;;;;;;27.87;25.17;;;2.30;99.90;;;;;;5104576;28;20179;-82
2021/01/04 04:31:19;;;;;;;28.67;25.87;;;2.30;99.90;;;;;;5078054;28;20698;-81
2021/01/04 04:33:45;;;;;;;29.70;26.80;;;2.30;99.90;;;;;;5099728;28;20224;-81
2021/01/04 04:36:27;;;;;;;28.60;25.90;;;2.30;99.90;;;;;;5115999;28;20182;-81
2021/01/04 04:38:53;;;;;;;29.47;26.57;;;2.30;99.90;;;;;;5110155;28;20171;-81
2021/01/04 04:41:33;;;;;;;29.27;26.47;;;2.30;99.90;;;;;;5105926;28;20177;-81
2021/01/04 04:44:24;;;;;;;29.17;26.43;;;2.30;99.90;;;;;;5112187;28;20268;-81
2021/01/04 04:47:06;;;;;;;28.93;26.20;;;2.30;99.90;;;;;;5114190;28;20170;-80
2021/01/04 04:49:51;;;;;;;29.67;26.77;;;2.30;99.90;;;;;;5094997;28;20264;-81
2021/01/04 04:52:54;;;;;;;29.70;26.80;;;2.30;99.90;;;;;;5096021;28;20194;-81
2021/01/04 04:55:47;;;;;;;30.57;27.50;;;2.30;99.90;;;;;;5106926;28;20579;-81
2021/01/04 04:58:38;;;;;;;29.60;26.70;;;2.30;99.90;;;;;;5097060;28;20213;-81
2021/01/04 05:01:28;;;;;;;29.53;26.43;;;2.30;99.90;;;;;;5101587;28;20643;-81
2021/01/04 05:04:18;;;;;;;28.73;26.03;;;2.30;99.90;;;;;;5097529;28;20170;-81
2021/01/04 05:06:46;;;;;;;30.47;27.33;;;2.30;99.90;;;;;;5095288;28;20208;-81
2021/01/04 05:09:56;;;;;;;30.10;27.17;;;2.30;99.90;;;;;;5103648;28;20277;-81
2021/01/04 05:12:47;;;;;;;29.03;26.23;;;2.30;99.90;;;;;;5091428;28;20202;-81
2021/01/04 05:15:25;;;;;;;29.40;26.60;;;2.30;99.90;;;;;;5109222;28;20182;-81
2021/01/04 05:18:05;;;;;;;29.33;26.63;;;2.30;99.90;;;;;;5102196;28;20222;-81
2021/01/04 05:20:52;;;;;;;29.93;27.03;;;2.30;99.90;;;;;;5114573;28;20177;-81
2021/01/04 05:24:00;;;;;;;31.63;28.57;;;2.30;99.90;;;;;;5104188;28;20193;-81
2021/01/04 05:26:47;;;;;;;33.03;29.83;;;2.30;99.90;;;;;;5113436;28;20692;-81
2021/01/04 05:29:43;;;;;;;31.90;28.77;;;2.30;99.90;;;;;;5099961;28;20185;-81
2021/01/04 05:32:11;;;;;;;32.60;29.50;;;2.30;99.90;;;;;;5112828;28;20188;-81
2021/01/04 05:34:41;;;;;;;32.47;29.30;;;2.30;99.90;;;;;;5098212;28;20253;-81
2021/01/04 05:37:28;;;;;;;33.37;30.07;;;2.30;99.90;;;;;;5093189;28;20224;-81
2021/01/04 05:40:12;;;;;;;30.50;27.60;;;2.30;99.90;;;;;;5113218;28;20599;-82
2021/01/04 05:43:13;;;;;;;30.53;27.63;;;2.20;99.90;;;;;;5113404;28;20562;-81
2021/01/04 05:45:48;;;;;;;30.37;27.47;;;2.20;99.90;;;;;;5080875;28;20263;-81
2021/01/04 05:48:35;;;;;;;31.57;28.47;;;2.20;99.90;;;;;;5102402;28;20170;-81
2021/01/04 05:51:07;;;;;;;32.03;28.93;;;2.20;99.90;;;;;;5104387;28;20217;-81
2021/01/04 05:53:32;;;;;;;33.17;29.97;;;2.20;99.90;;;;;;5108235;28;20194;-82
2021/01/04 05:55:59;;;;;;;34.07;30.87;;;2.20;99.90;;;;;;5095173;28;20250;-81
2021/01/04 05:58:35;;;;;;;32.63;29.40;;;2.20;99.90;;;;;;5112885;28;20530;-82
2021/01/04 06:01:24;;;;;;;32.80;29.60;;;2.20;99.90;;;;;;5096258;28;20301;-81
2021/01/04 06:04:03;;;;;;;34.37;31.07;;;2.20;99.90;;;;;;5101504;28;20178;-82
2021/01/04 06:06:53;;;;;;;34.93;31.57;;;2.20;99.90;;;;;;5095070;28;20181;-81
2021/01/04 06:09:19;;;;;;;35.20;31.63;;;2.20;99.90;;;;;;5112700;28;20201;-82
2021/01/04 06:11:58;;;;;;;37.07;33.37;;;2.20;99.90;;;;;;5103499;28;20263;-82
2021/01/04 06:14:30;;;;;;;35.80;32.50;;;2.20;99.90;;;;;;5112777;28;20518;-82
2021/01/04 06:17:32;;;;;;;37.03;33.43;;;2.30;99.90;;;;;;5113888;28;20169;-82
2021/01/04 06:20:23;;;;;;;37.07;33.57;;;2.20;99.90;;;;;;5095522;28;20190;-81
2021/01/04 06:22:49;;;;;;;36.20;32.67;;;2.30;99.90;;;;;;5113582;28;20182;-82
2021/01/04 06:25:18;;;;;;;36.70;32.97;;;2.20;99.90;;;;;;5092463;28;20183;-82
2021/01/04 06:27:47;;;;;;;36.43;32.63;;;2.30;99.90;;;;;;5112602;28;20257;-82
2021/01/04 06:30:18;;;;;;;32.43;22.23;;;2.20;99.90;;;;;;5094320;28;20697;-82
2021/01/04 06:32:46;;;;;;;37.20;33.50;;;2.30;99.90;;;;;;5103108;28;20561;-82
2021/01/04 06:35:32;;;;;;;37.33;33.73;;;2.30;99.90;;;;;;5101854;28;20328;-82
2021/01/04 06:38:14;;;;;;;37.10;33.40;;;2.30;99.90;;;;;;5107822;28;20186;-82
2021/01/04 06:40:43;;;;;;;37.37;33.67;;;2.30;99.90;;;;;;5093925;28;20186;-82
2021/01/04 06:43:29;;;;;;;36.47;32.87;;;2.30;99.90;;;;;;5104685;28;20265;-82
2021/01/04 06:46:43;;;;;;;36.47;32.87;;;2.30;99.90;;;;;;5103161;28;20182;-82
2021/01/04 06:49:22;;;;;;;36.57;32.97;;;2.30;99.90;;;;;;5054871;28;20222;-79
2021/01/04 06:52:14;;;;;;;36.47;32.87;;;2.30;99.90;;;;;;5111788;28;20297;-81
2021/01/04 06:55:18;;;;;;;38.07;34.37;;;2.30;99.90;;;;;;5112372;28;20177;-82
2021/01/04 06:57:59;;;;;;;35.77;32.10;;;2.40;99.90;;;;;;5111907;28;20180;-82
2021/01/04 07:00:26;;;;;;;39.67;35.67;;;2.30;99.90;;;;;;5093336;28;20155;-82
2021/01/04 07:03:09;;;;;;;37.63;33.73;;;2.30;99.90;;;;;;5093212;28;20170;-82
2021/01/04 07:05:52;;;;;;;37.60;33.90;;;2.30;99.90;;;;;;5097629;28;20230;-81
2021/01/04 07:08:27;;;;;;;38.23;34.47;;;2.30;99.90;;;;;;5111428;28;20256;-82
2021/01/04 07:11:13;;;;;;;37.73;34.10;;;2.30;99.90;;;;;;5091975;28;20280;-82
2021/01/04 07:13:42;;;;;;;36.23;32.73;;;2.40;99.90;;;;;;5093837;28;20535;-81
2021/01/04 07:16:16;;;;;;;38.60;34.73;;;2.30;99.90;;;;;;5103057;28;20711;-81
2021/01/04 07:19:12;;;;;;;38.13;34.43;;;2.30;99.90;;;;;;5092850;28;20177;-82
2021/01/04 07:21:55;;;;;;;39.03;35.23;;;2.30;99.90;;;;;;5092380;28;20223;-81
2021/01/04 07:24:24;;;;;;;37.07;33.20;;;2.40;99.90;;;;;;5109028;28;20178;-82
2021/01/04 07:27:14;;;;;;;37.33;33.63;;;2.30;99.90;;;;;;5107683;28;20185;-82
2021/01/04 07:30:11;;;;;;;37.37;33.70;;;2.30;99.90;;;;;;5108478;28;20179;-81
2021/01/04 07:33:00;;;;;;;36.90;33.17;;;2.30;99.90;;;;;;5102556;28;20186;-82
2021/01/04 07:35:52;;;;;;;35.73;24.80;;;2.30;99.90;;;;;;5112368;28;20177;-81
2021/01/04 07:38:21;;;;;;;37.73;34.07;;;2.40;99.90;;;;;;5111872;28;20174;-82
2021/01/04 07:41:01;;;;;;;37.97;34.13;;;2.40;99.90;;;;;;5110674;28;20194;-82
2021/01/04 07:44:05;;;;;;;37.37;33.77;;;2.30;99.90;;;;;;5098042;28;20200;-81
2021/01/04 07:47:08;;;;;;;36.73;33.13;;;2.40;99.90;;;;;;5105306;28;20175;-81
2021/01/04 07:50:02;;;;;;;37.10;33.40;;;2.40;99.90;;;;;;5091722;28;20167;-82
2021/01/04 07:52:30;;;;;;;37.37;33.57;;;2.40;99.90;;;;;;5091301;28;20665;-81
2021/01/04 07:55:21;;;;;;;35.50;32.00;;;2.40;99.90;;;;;;5091554;28;20299;-81
2021/01/04 07:58:24;;;;;;;37.23;33.33;;;2.40;99.90;;;;;;5092503;28;20265;-82
2021/01/04 08:00:49;;;;;;;35.47;31.93;;;2.40;99.90;;;;;;5097435;28;20170;-81
2021/01/04 08:03:30;;;;;;;37.50;33.90;;;2.40;99.90;;;;;;5112756;28;20166;-81
2021/01/04 08:06:04;;;;;;;37.23;33.53;;;2.40;99.90;;;;;;5112562;28;20626;-83
2021/01/04 08:08:43;;;;;;;37.70;34.03;;;2.40;99.90;;;;;;5111471;28;20184;-82
2021/01/04 08:11:45;;;;;;;38.83;35.03;;;2.40;99.90;;;;;;5112702;28;20212;-81
2021/01/04 08:14:36;;;;;;;37.90;34.20;;;2.40;99.90;;;;;;5111380;28;20665;-82
2021/01/04 08:17:21;;;;;;;38.23;34.33;;;2.50;99.90;;;;;;5112284;28;20524;-81
2021/01/04 08:19:51;;;;;;;38.63;34.60;;;2.50;99.90;;;;;;5112777;28;20248;-82
2021/01/04 08:22:46;;;;;;;38.23;34.40;;;2.50;99.90;;;;;;5116737;28;20159;-81
2021/01/04 08:25:18;;;;;;;39.07;35.07;;;2.60;99.90;;;;;;5113618;28;20675;-82
2021/01/04 08:28:06;;;;;;;39.03;35.13;;;2.50;99.90;;;;;;5109561;28;20669;-81
2021/01/04 08:30:39;;;;;;;37.33;33.60;;;2.50;99.90;;;;;;5094615;28;20214;-82
2021/01/04 08:33:26;;;;;;;37.13;33.40;;;2.60;99.90;;;;;;5104735;28;20179;-82
2021/01/04 08:35:53;;;;;;;37.90;34.20;;;2.60;99.90;;;;;;5116585;28;20608;-83
2021/01/04 08:38:28;;;;;;;38.87;34.90;;;2.60;99.90;;;;;;5116188;28;20180;-83
2021/01/04 08:41:31;;;;;;;38.10;34.37;;;2.50;99.90;;;;;;5114703;28;20192;-82
2021/01/04 08:43:56;;;;;;;40.63;36.50;;;2.50;99.90;;;;;;5036446;28;20222;-82
2021/01/04 08:46:22;;;;;;;38.87;34.87;;;2.50;99.90;;;;;;5098686;28;20221;-82
2021/01/04 08:48:49;;;;;;;38.73;34.83;;;2.50;99.90;;;;;;5114855;28;20258;-83
2021/01/04 08:51:24;;;;;;;40.33;36.33;;;2.50;99.90;;;;;;5115829;28;20192;-82
2021/01/04 08:53:56;;;;;;;39.83;35.80;;;2.50;99.90;;;;;;5116150;28;20244;-83
2021/01/04 08:56:21;;;;;;;39.87;35.97;;;2.50;99.90;;;;;;5114674;28;20432;-83
2021/01/04 08:58:48;;;;;;;40.13;36.13;;;2.50;99.90;;;;;;5116160;28;20253;-82
2021/01/04 09:01:27;;;;;;;40.57;36.57;;;2.50;99.90;;;;;;5114657;28;20191;-82
2021/01/04 09:04:08;;;;;;;38.83;34.97;;;2.50;99.90;;;;;;5114808;28;20180;-82
2021/01/04 09:06:37;;;;;;;39.33;35.37;;;2.40;99.90;;;;;;5115660;28;20634;-82
2021/01/04 09:09:18;;;;;;;39.60;35.60;;;2.50;99.90;;;;;;5114022;28;20185;-82
2021/01/04 09:11:55;;;;;;;41.13;37.03;;;2.40;99.90;;;;;;5115344;28;20304;-83
2021/01/04 09:14:36;;;;;;;43.43;39.03;;;2.40;99.90;;;;;;5116024;28;20170;-82
2021/01/04 09:17:21;;;;;;;40.80;36.87;;;2.50;99.90;;;;;;5114157;28;20170;-82
2021/01/04 09:19:50;;;;;;;39.07;35.17;;;2.50;99.90;;;;;;5115062;28;20208;-82
2021/01/04 09:22:21;;;;;;;39.40;35.53;;;2.40;99.90;;;;;;5115325;28;20182;-83
2021/01/04 09:24:47;;;;;;;39.77;35.87;;;2.50;99.90;;;;;;5097344;28;20173;-83
2021/01/04 09:27:22;;;;;;;38.73;34.97;;;2.50;99.90;;;;;;5114104;28;20185;-83
2021/01/04 09:29:51;;;;;;;38.00;34.30;;;2.50;99.90;;;;;;5115182;28;20257;-83
2021/01/04 09:32:26;;;;;;;39.20;35.40;;;2.60;99.90;;;;;;5113832;28;20286;-82
2021/01/04 09:34:52;;;;;;;36.40;32.90;;;2.60;99.90;;;;;;5114104;28;20181;-83
2021/01/04 09:37:25;;;;;;;35.70;32.20;;;2.60;99.90;;;;;;5114091;28;20723;-82
2021/01/04 09:40:03;;;;;;;36.63;33.03;;;2.60;99.90;;;;;;5115051;27;20675;-82
2021/01/04 09:42:29;;;;;;;35.67;32.30;;;2.60;99.90;;;;;;5113637;28;20178;-82
2021/01/04 09:45:11;;;;;;;35.83;32.33;;;2.60;99.90;;;;;;5114948;28;20174;-82
2021/01/04 09:47:52;;;;;;;35.07;31.77;;;2.60;99.90;;;;;;5113435;28;20611;-83
2021/01/04 09:50:23;;;;;;;35.53;32.13;;;2.60;99.90;;;;;;5113277;28;20254;-83
2021/01/04 09:52:58;;;;;;;35.70;32.30;;;2.60;99.90;;;;;;5114682;28;20209;-81
2021/01/04 09:55:38;;;;;;;34.13;30.93;;;2.60;99.90;;;;;;5113524;28;20170;-81
2021/01/04 09:58:04;;;;;;;34.43;31.03;;;2.60;99.90;;;;;;5113238;28;20178;-82
2021/01/04 10:00:34;;;;;;;34.57;31.37;;;2.60;99.90;;;;;;5113479;28;20257;-81
2021/01/04 10:03:06;;;;;;;33.93;30.70;;;2.60;99.90;;;;;;5113055;28;20180;-83
2021/01/04 10:05:35;;;;;;;33.83;30.60;;;2.70;99.90;;;;;;5113256;28;20186;-83
2021/01/04 10:08:05;;;;;;;35.60;32.23;;;2.60;99.90;;;;;;5112913;28;20238;-82
2021/01/04 10:10:30;;;;;;;34.00;30.80;;;2.80;99.90;;;;;;5100795;28;20196;-82
2021/01/04 10:13:07;;;;;;;30.83;28.03;;;2.70;99.90;;;;;;5102020;28;20182;-82
2021/01/04 10:15:34;;;;;;;33.53;30.33;;;2.70;99.90;;;;;;5093294;28;20231;-81
2021/01/04 10:18:21;;;;;;;33.23;30.23;;;2.70;99.90;;;;;;5099556;28;20186;-82
2021/01/04 10:20:53;;;;;;;32.90;29.83;;;2.70;99.90;;;;;;5093242;28;20175;-82
2021/01/04 10:23:57;;;;;;;31.33;28.43;;;2.80;99.90;;;;;;5094578;28;20159;-82
2021/01/04 10:26:23;;;;;;;31.57;28.67;;;2.70;99.90;;;;;;5075546;28;20742;-81
2021/01/04 10:28:49;;;;;;;32.53;29.43;;;2.70;99.90;;;;;;5105251;28;20201;-81
2021/01/04 10:31:14;;;;;;;31.70;28.80;;;2.60;99.90;;;;;;5114708;28;20555;-82
2021/01/04 10:33:41;;;;;;;31.90;28.87;;;2.70;99.90;;;;;;5113363;28;20170;-82
2021/01/04 10:36:07;;;;;;;32.07;29.17;;;2.70;99.90;;;;;;5110437;28;20190;-82
2021/01/04 10:38:36;;;;;;;31.77;28.77;;;2.70;99.90;;;;;;5104730;28;20178;-82
2021/01/04 10:41:11;;;;;;;33.23;30.03;;;2.60;99.90;;;;;;5099650;28;20198;-82
2021/01/04 10:43:37;;;;;;;33.17;30.07;;;2.60;99.90;;;;;;5111614;28;20180;-83
2021/01/04 10:46:35;;;;;;;31.97;28.83;;;2.60;99.90;;;;;;5113659;28;20211;-83
2021/01/04 10:49:05;;;;;;;31.67;28.77;;;2.70;99.90;;;;;;5111890;28;20197;-82
2021/01/04 10:51:32;;;;;;;32.60;29.60;;;2.70;99.90;;;;;;5113672;28;20185;-83
2021/01/04 10:53:58;;;;;;;33.17;30.07;;;2.70;99.90;;;;;;5112720;28;20222;-82
2021/01/04 10:56:52;;;;;;;32.57;29.37;;;2.70;99.90;;;;;;5113729;28;20565;-82
2021/01/04 10:59:36;;;;;;;31.23;28.23;;;2.70;99.90;;;;;;5112294;28;20169;-81
2021/01/04 11:02:03;;;;;;;31.60;28.60;;;2.90;99.90;;;;;;5113535;28;20159;-82
2021/01/04 11:04:29;;;;;;;31.77;28.83;;;2.90;99.90;;;;;;5103175;28;20218;-81
2021/01/04 11:07:06;;;;;;;32.77;29.77;;;2.80;99.90;;;;;;5093205;28;20174;-81
2021/01/04 11:09:36;;;;;;;31.37;28.47;;;2.80;99.90;;;;;;5093203;28;20158;-82
2021/01/04 11:12:08;;;;;;;32.63;29.63;;;2.70;99.90;;;;;;5092680;28;20218;-82
2021/01/04 11:14:34;;;;;;;32.63;29.53;;;2.70;99.90;;;;;;5092871;28;20535;-83
2021/01/04 11:17:31;;;;;;;33.23;30.13;;;2.70;99.90;;;;;;5109130;28;20178;-82
2021/01/04 11:20:15;;;;;;;34.60;31.33;;;2.70;99.90;;;;;;5112756;28;20227;-84
2021/01/04 11:22:41;;;;;;;35.03;31.77;;;2.80;99.90;;;;;;5113516;28;20175;-82
2021/01/04 11:25:08;;;;;;;34.67;31.37;;;2.80;99.90;;;;;;5095181;28;20260;-83
2021/01/04 11:27:34;;;;;;;34.97;31.67;;;2.70;99.90;;;;;;5111741;28;20512;-83
2021/01/04 11:30:00;;;;;;;32.87;29.77;;;2.80;99.90;;;;;;5111789;28;20184;-82
2021/01/04 11:32:26;;;;;;;31.20;28.10;;;2.80;99.90;;;;;;5111563;28;20174;-81
2021/01/04 11:35:00;;;;;;;30.60;27.73;;;2.90;99.90;;;;;;5113444;28;20180;-81
2021/01/04 11:37:26;;;;;;;31.43;28.43;;;2.90;99.90;;;;;;5113681;28;20153;-81
2021/01/04 11:39:53;;;;;;;32.03;28.83;;;3.00;99.90;;;;;;5112363;28;20182;-82
2021/01/04 11:42:19;;;;;;;31.40;28.30;;;3.00;99.90;;;;;;5091766;28;20179;-81
2021/01/04 11:44:46;;;;;;;32.63;29.63;;;3.00;99.90;;;;;;5092348;28;20182;-80
2021/01/04 11:47:11;;;;;;;32.43;29.50;;;3.00;99.90;;;;;;5093079;28;20291;-81
2021/01/04 11:49:37;;;;;;;31.93;28.97;;;3.00;99.90;;;;;;5092110;28;20207;-81
2021/01/04 11:52:03;;;;;;;32.27;29.27;;;3.00;99.90;;;;;;5102324;28;20208;-81
2021/01/04 11:54:29;;;;;;;32.97;29.90;;;3.00;99.90;;;;;;5114956;28;20535;-81
2021/01/04 11:56:56;;;;;;;33.97;30.77;;;3.00;99.90;;;;;;5117725;28;20626;-81
2021/01/04 11:59:22;;;;;;;35.03;31.63;;;3.00;99.90;;;;;;5106179;27;20217;-81
2021/01/04 12:01:47;;;;;;;35.17;31.97;;;3.00;99.90;;;;;;5109219;28;20560;-81
2021/01/04 12:04:13;;;;;;;35.23;31.80;;;3.10;99.90;;;;;;5116509;28;20179;-81
2021/01/04 12:06:39;;;;;;;34.00;30.80;;;3.10;99.90;;;;;;5104205;28;20223;-82
2021/01/04 12:09:06;;;;;;;33.80;30.70;;;3.00;99.90;;;;;;5095778;28;20170;-82
2021/01/04 12:11:34;;;;;;;35.07;31.87;;;3.00;99.90;;;;;;5101796;28;20272;-81
2021/01/04 12:14:00;;;;;;;34.03;30.83;;;3.10;99.90;;;;;;5079173;28;20175;-81
2021/01/04 12:16:32;;;;;;;34.07;30.80;;;3.10;99.90;;;;;;5107180;28;20545;-82
2021/01/04 12:18:57;;;;;;;35.77;32.33;;;3.00;99.90;;;;;;5116152;28;20177;-81
2021/01/04 12:21:24;;;;;;;35.50;32.20;;;3.00;99.90;;;;;;5114128;28;20642;-81
2021/01/04 12:23:50;;;;;;;36.50;33.10;;;3.10;99.90;;;;;;5116927;28;20181;-82
2021/01/04 12:26:16;;;;;;;36.00;32.50;;;3.20;99.90;;;;;;5109571;28;20275;-81
2021/01/04 12:28:42;;;;;;;36.97;33.57;;;3.10;99.90;;;;;;5113286;27;20194;-81
2021/01/04 12:31:08;;;;;;;35.67;32.27;;;3.10;99.90;;;;;;5117122;27;20228;-81
2021/01/04 12:33:34;;;;;;;35.97;32.50;;;3.10;99.90;;;;;;5114813;27;20182;-82
2021/01/04 12:36:00;;;;;;;35.40;31.90;;;3.00;99.90;;;;;;5101594;27;20260;-81
2021/01/04 12:38:25;;;;;;;36.13;32.70;;;2.90;99.90;;;;;;5097249;28;20179;-81
2021/01/04 12:40:51;;;;;;;35.43;32.03;;;3.00;99.90;;;;;;5091006;28;20190;-80
2021/01/04 12:43:17;;;;;;;35.67;32.23;;;2.90;99.90;;;;;;5116937;27;20642;-81
2021/01/04 12:45:42;;;;;;;34.90;31.63;;;2.90;99.90;;;;;;5098201;28;20731;-80
2021/01/04 12:48:08;;;;;;;36.20;32.70;;;2.90;99.90;;;;;;5102412;28;20183;-81
2021/01/04 12:50:34;;;;;;;36.50;32.90;;;3.00;99.90;;;;;;5114627;28;20205;-81
2021/01/04 12:52:59;;;;;;;36.03;32.50;;;3.00;99.90;;;;;;5113723;28;20260;-81
2021/01/04 12:55:25;;;;;;;36.60;33.00;;;2.90;99.90;;;;;;5110781;28;20266;-82
2021/01/04 12:57:51;;;;;;;36.47;32.97;;;3.00;99.90;;;;;;5095260;28;20554;-81
2021/01/04 13:00:23;;;;;;;37.23;33.63;;;3.10;99.90;;;;;;5114504;28;20184;-81
2021/01/04 13:02:50;;;;;;;36.23;32.83;;;3.10;99.90;;;;;;5114791;28;20637;-81
2021/01/04 13:05:17;;;;;;;35.37;32.07;;;3.10;99.90;;;;;;5115998;28;20205;-82
2021/01/04 13:07:43;;;;;;;37.67;34.07;;;3.10;99.90;;;;;;5097874;28;20201;-81
2021/01/04 13:10:10;;;;;;;36.27;32.77;;;3.00;99.90;;;;;;5112768;28;20210;-80
2021/01/04 13:12:37;;;;;;;37.47;33.90;;;3.10;99.90;;;;;;5115719;27;20657;-82
2021/01/04 13:15:05;;;;;;;34.13;30.70;;;3.10;99.90;;;;;;5123438;27;20174;-81
2021/01/04 13:17:31;;;;;;;35.77;32.30;;;3.00;99.90;;;;;;5114690;27;20189;-82
2021/01/04 13:19:56;;;;;;;36.13;32.73;;;3.10;99.90;;;;;;5093466;28;20632;-82
2021/01/04 13:22:22;;;;;;;35.53;32.17;;;3.10;99.90;;;;;;5115116;28;20703;-83